Time;durP1;ratioP1;P1;durP2;ratioP2;P2;SDS_P1;SDS_P2;PMS_P1;PMS_P2;Temp;Humidity;BMP_temperature;BMP_pressure;BME280_temperature;BME280_humidity;BME280_pressure;Samples;Min_cycle;Max_cycle;Signal;HPM_P1;HPM_P2
2022/03/18 00:01:20;;;;;;;3.72;2.28;;;;;;;18.71;42.67;104034.53;5023755;28;20420;-40
2022/03/18 00:03:46;;;;;;;4.38;2.28;;;;;;;18.70;42.57;104051.63;5025459;28;20040;-40
2022/03/18 00:06:16;;;;;;;5.15;2.65;;;;;;;18.68;42.43;104049.94;5024286;28;20057;-40
2022/03/18 00:08:46;;;;;;;7.07;2.38;;;;;;;18.66;42.54;104052.69;5022346;28;20060;-40
2022/03/18 00:11:14;;;;;;;3.70;2.10;;;;;;;18.64;42.63;104048.34;5024288;28;20044;-41
2022/03/18 00:13:41;;;;;;;3.25;2.22;;;;;;;18.63;42.27;104046.63;5024651;28;20041;-41
2022/03/18 00:16:07;;;;;;;3.58;2.40;;;;;;;18.60;42.42;104050.31;5021433;28;20124;-41
2022/03/18 00:18:34;;;;;;;5.25;2.90;;;;;;;18.61;42.31;104053.88;5021741;28;20052;-40
2022/03/18 00:21:01;;;;;;;4.55;2.20;;;;;;;18.58;42.34;104062.09;5023947;28;20077;-41
2022/03/18 00:23:27;;;;;;;4.88;2.25;;;;;;;18.57;42.11;104061.22;5021491;28;20042;-41
2022/03/18 00:25:54;;;;;;;5.57;2.38;;;;;;;18.58;42.64;104068.34;5022702;28;20123;-41
2022/03/18 00:28:20;;;;;;;4.55;2.38;;;;;;;18.56;42.45;104058.63;5020869;28;20077;-41
2022/03/18 00:30:48;;;;;;;2.47;1.80;;;;;;;18.52;42.36;104055.22;5024401;28;20128;-40
2022/03/18 00:33:15;;;;;;;5.18;2.30;;;;;;;18.53;42.06;104064.13;5023362;28;20489;-40
2022/03/18 00:35:41;;;;;;;3.47;2.00;;;;;;;18.49;42.57;104053.56;5023143;28;20048;-41
2022/03/18 00:38:08;;;;;;;5.60;2.60;;;;;;;18.48;42.35;104048.25;5022153;28;20090;-41
2022/03/18 00:40:35;;;;;;;5.05;2.28;;;;;;;18.48;42.29;104051.81;5021602;28;20045;-41
2022/03/18 00:43:03;;;;;;;6.63;2.20;;;;;;;18.46;42.17;104052.84;5021376;28;20208;-41
2022/03/18 00:45:30;;;;;;;4.78;2.28;;;;;;;18.43;42.37;104053.88;5022305;28;20054;-41
2022/03/18 00:53:28;;;;;;;4.78;2.30;;;;;;;18.40;42.07;104070.13;5020373;28;20147;-41
2022/03/18 00:55:54;;;;;;;7.50;2.10;;;;;;;18.40;42.34;104063.91;5021001;28;20429;-41
2022/03/18 00:58:21;;;;;;;4.35;2.30;;;;;;;18.38;42.17;104064.00;5022812;28;20072;-41
2022/03/18 01:00:47;;;;;;;4.28;2.20;;;;;;;18.37;42.30;104069.41;5021093;28;20058;-41
2022/03/18 01:03:15;;;;;;;6.45;2.55;;;;;;;18.35;42.25;104077.56;5020235;28;20057;-41
2022/03/18 01:05:43;;;;;;;4.22;2.13;;;;;;;18.34;42.50;104073.16;5020764;28;20092;-41
2022/03/18 01:08:10;;;;;;;4.22;2.45;;;;;;;18.34;41.99;104066.91;5021856;28;20129;-41
2022/03/18 01:10:36;;;;;;;3.97;2.13;;;;;;;18.34;42.28;104058.84;5021530;28;20037;-41
2022/03/18 01:13:03;;;;;;;4.22;2.13;;;;;;;18.30;42.35;104066.19;5019730;28;20084;-41
2022/03/18 01:15:30;;;;;;;4.28;2.17;;;;;;;18.29;42.21;104067.16;5021563;28;20095;-41
2022/03/18 01:17:56;;;;;;;5.22;2.20;;;;;;;18.29;42.14;104066.25;5019912;28;20112;-41
2022/03/18 01:20:23;;;;;;;3.95;1.80;;;;;;;18.27;42.14;104070.84;5021918;28;20175;-41
2022/03/18 01:22:50;;;;;;;3.83;2.00;;;;;;;18.25;42.28;104068.22;5016871;28;20084;-41
2022/03/18 01:25:16;;;;;;;4.47;2.00;;;;;;;18.23;42.32;104073.66;5020517;28;20046;-41
2022/03/18 01:27:43;;;;;;;4.15;2.38;;;;;;;18.23;42.17;104060.25;5019986;28;20385;-41
2022/03/18 01:30:11;;;;;;;4.18;2.15;;;;;;;18.22;42.20;104066.56;5021048;28;20172;-41
2022/03/18 01:32:37;;;;;;;3.95;2.22;;;;;;;18.20;42.04;104062.22;5021809;28;20328;-41
2022/03/18 01:35:04;;;;;;;4.30;2.35;;;;;;;18.19;42.47;104060.47;5020903;28;20481;-41
2022/03/18 01:37:30;;;;;;;5.13;1.80;;;;;;;18.19;42.54;104064.03;5022467;28;20046;-41
2022/03/18 01:39:57;;;;;;;4.30;2.30;;;;;;;18.18;42.30;104066.81;5020777;28;20054;-41
2022/03/18 01:42:24;;;;;;;3.97;2.00;;;;;;;18.16;42.20;104064.19;5025402;28;20124;-41
2022/03/18 01:44:51;;;;;;;4.32;2.10;;;;;;;18.15;42.01;104065.13;5026924;28;20164;-41
2022/03/18 01:47:18;;;;;;;3.97;1.98;;;;;;;18.15;42.42;104062.44;5024532;28;20326;-41
2022/03/18 01:49:45;;;;;;;4.82;2.75;;;;;;;18.13;42.18;104075.09;5027357;28;20060;-41
2022/03/18 01:52:11;;;;;;;4.03;2.22;;;;;;;18.13;42.03;104074.19;5024805;28;20055;-41
2022/03/18 01:54:46;;;;;;;4.82;2.28;;;;;;;18.12;42.52;104070.63;5024773;28;20111;-41
2022/03/18 01:57:21;;;;;;;5.18;2.08;;;;;;;18.11;42.49;104076.97;5022539;28;20049;-41
2022/03/18 01:59:49;;;;;;;4.45;2.05;;;;;;;18.09;42.18;104078.88;5024800;28;20059;-41
2022/03/18 02:02:17;;;;;;;6.03;2.40;;;;;;;18.08;42.22;104082.47;5027017;28;20136;-41
2022/03/18 02:04:44;;;;;;;4.75;2.15;;;;;;;18.07;42.17;104074.50;5023020;28;20565;-41
2022/03/18 02:07:12;;;;;;;4.07;2.25;;;;;;;18.05;42.39;104082.66;5024683;28;20488;-41
2022/03/18 02:09:40;;;;;;;3.55;2.03;;;;;;;18.05;42.05;104087.13;5026910;28;20045;-41
2022/03/18 02:12:07;;;;;;;4.88;2.40;;;;;;;18.04;42.40;104091.63;5025126;28;20050;-41
2022/03/18 02:14:46;;;;;;;3.30;2.10;;;;;;;18.03;42.28;104095.25;5024134;28;20083;-41
2022/03/18 02:17:17;;;;;;;3.92;2.28;;;;;;;18.00;42.35;104082.84;5024772;28;20045;-41
2022/03/18 02:19:45;;;;;;;4.75;2.70;;;;;;;17.99;42.05;104086.47;5027453;28;20879;-41
2022/03/18 02:22:21;;;;;;;4.50;2.10;;;;;;;17.99;42.37;104093.66;5026013;28;20037;-41
2022/03/18 02:24:49;;;;;;;5.85;2.25;;;;;;;17.99;42.28;104089.16;5023782;28;20171;-41
2022/03/18 02:27:16;;;;;;;5.50;1.98;;;;;;;17.97;42.15;104085.69;5023051;28;20041;-41
2022/03/18 02:29:43;;;;;;;4.68;2.20;;;;;;;17.98;42.07;104086.56;5025705;28;20125;-41
2022/03/18 02:32:11;;;;;;;3.75;2.28;;;;;;;17.96;42.13;104091.13;5026079;28;20053;-41
2022/03/18 02:34:39;;;;;;;2.97;1.92;;;;;;;17.94;42.60;104084.97;5024313;28;20044;-40
2022/03/18 02:37:07;;;;;;;4.05;1.80;;;;;;;17.93;42.30;104086.78;5022740;28;20064;-41
2022/03/18 02:39:34;;;;;;;3.80;2.25;;;;;;;17.93;42.11;104093.94;5022072;28;20128;-40
2022/03/18 02:42:01;;;;;;;4.10;2.10;;;;;;;17.91;41.83;104103.91;5024424;28;20049;-40
2022/03/18 02:44:27;;;;;;;3.78;1.80;;;;;;;17.90;42.06;104099.47;5023412;28;20048;-40
2022/03/18 02:46:55;;;;;;;4.15;2.05;;;;;;;17.90;42.19;104113.78;5025587;28;20597;-40
2022/03/18 02:49:24;;;;;;;3.67;2.13;;;;;;;17.90;42.25;104104.84;5024348;28;20140;-41
2022/03/18 02:51:51;;;;;;;3.13;1.88;;;;;;;17.89;41.88;104109.34;5036927;28;20037;-41
2022/03/18 02:54:17;;;;;;;3.33;1.73;;;;;;;17.87;42.08;104115.72;5025072;28;20037;-41
2022/03/18 02:56:44;;;;;;;3.47;2.55;;;;;;;17.86;42.17;104106.81;5024933;28;20053;-41
2022/03/18 02:59:10;;;;;;;3.72;2.35;;;;;;;17.86;42.23;104114.00;5021883;28;20053;-41
2022/03/18 03:01:37;;;;;;;3.83;2.00;;;;;;;17.86;42.24;104116.69;5022287;28;20053;-41
2022/03/18 03:04:04;;;;;;;5.10;2.30;;;;;;;17.85;42.02;104123.84;5023918;28;20053;-41
2022/03/18 03:09:19;;;;;;;3.97;1.90;;;;;;;17.84;42.04;104132.81;5024254;28;20050;-41
2022/03/18 03:11:46;;;;;;;4.80;1.90;;;;;;;17.83;42.20;104127.53;5024254;28;20107;-41
2022/03/18 03:14:13;;;;;;;3.05;1.77;;;;;;;17.81;41.82;104138.34;5024030;28;20080;-41
2022/03/18 03:16:39;;;;;;;3.53;1.77;;;;;;;17.82;42.02;104131.19;5025028;28;20093;-41
2022/03/18 03:19:06;;;;;;;3.75;2.05;;;;;;;17.80;42.17;104133.91;5022121;28;20033;-41
2022/03/18 03:21:34;;;;;;;3.42;1.85;;;;;;;17.80;41.73;104138.41;5024511;28;20056;-41
2022/03/18 03:24:01;;;;;;;4.65;2.10;;;;;;;17.79;42.13;104137.53;5023598;28;20077;-41
2022/03/18 03:26:28;;;;;;;6.22;1.60;;;;;;;17.80;42.10;104146.47;5020581;28;20053;-41
2022/03/18 03:28:55;;;;;;;2.63;1.60;;;;;;;17.78;41.99;104154.59;5022944;28;20049;-41
2022/03/18 03:31:21;;;;;;;3.50;1.90;;;;;;;17.76;41.99;104143.91;5023802;28;20461;-41
2022/03/18 03:33:48;;;;;;;4.07;1.77;;;;;;;17.75;42.06;104144.88;5020895;28;20479;-41
2022/03/18 03:36:15;;;;;;;4.00;1.90;;;;;;;17.74;41.76;104139.56;5025843;28;20128;-40
2022/03/18 03:38:41;;;;;;;3.60;1.70;;;;;;;17.74;42.17;104140.44;5021662;28;20522;-40
2022/03/18 03:41:08;;;;;;;6.80;2.35;;;;;;;17.72;42.18;104150.34;5025098;28;20041;-40
2022/03/18 03:43:35;;;;;;;4.20;2.13;;;;;;;17.71;41.89;104151.28;5021226;28;20077;-40
2022/03/18 03:46:01;;;;;;;4.28;1.80;;;;;;;17.70;41.75;104149.53;5024192;28;20049;-40
2022/03/18 03:48:28;;;;;;;3.42;1.65;;;;;;;17.69;42.07;104145.13;5020981;28;20041;-40
2022/03/18 03:50:54;;;;;;;3.65;2.08;;;;;;;17.69;41.88;104158.53;5025413;28;20045;-41
2022/03/18 03:53:21;;;;;;;2.75;1.92;;;;;;;17.68;42.08;104146.06;5024797;28;20107;-40
2022/03/18 03:55:48;;;;;;;3.13;1.92;;;;;;;17.68;42.01;104150.53;5021084;28;20106;-40
2022/03/18 03:58:14;;;;;;;5.72;2.17;;;;;;;17.67;41.86;104148.81;5024957;28;20432;-40
2022/03/18 04:00:41;;;;;;;3.85;1.70;;;;;;;17.67;41.86;104151.50;5021271;28;20041;-40
2022/03/18 04:03:08;;;;;;;4.18;1.85;;;;;;;17.66;41.85;104149.75;5021512;28;20068;-40
2022/03/18 04:05:35;;;;;;;3.65;1.48;;;;;;;17.64;42.11;104157.84;5025543;28;20340;-40
2022/03/18 04:08:02;;;;;;;5.10;1.80;;;;;;;17.64;42.18;104146.25;5020891;28;20444;-40
2022/03/18 04:10:29;;;;;;;3.55;1.70;;;;;;;17.63;41.73;104158.81;5022201;28;20073;-40
2022/03/18 04:12:55;;;;;;;3.58;1.90;;;;;;;17.64;42.28;104162.34;5022413;28;20522;-40
2022/03/18 04:15:23;;;;;;;5.65;2.67;;;;;;;17.64;41.87;104157.84;5023510;28;20674;-40
2022/03/18 04:17:50;;;;;;;2.55;1.67;;;;;;;17.63;41.74;104158.81;5020761;28;20045;-40
2022/03/18 04:20:20;;;;;;;3.03;1.90;;;;;;;17.62;41.88;104165.13;5022980;28;20073;-41
2022/03/18 04:22:47;;;;;;;4.93;2.05;;;;;;;17.61;41.39;104174.13;5021670;28;20061;-40
2022/03/18 04:25:13;;;;;;;4.07;2.03;;;;;;;17.61;41.89;104178.59;5023984;28;20049;-40
2022/03/18 04:27:41;;;;;;;3.00;1.88;;;;;;;17.60;41.88;104185.75;5020876;28;20500;-40
2022/03/18 04:30:10;;;;;;;3.65;1.80;;;;;;;17.64;41.87;104197.22;5022082;28;20061;-40
2022/03/18 04:32:37;;;;;;;3.17;1.60;;;;;;;17.69;41.85;104198.78;5021344;28;20210;-41
2022/03/18 04:35:07;;;;;;;3.08;1.90;;;;;;;17.76;41.29;104199.38;5020072;28;20049;-41
2022/03/18 04:37:34;;;;;;;3.53;1.80;;;;;;;17.82;41.36;104207.19;5020581;28;20454;-41
2022/03/18 04:40:00;;;;;;;2.78;1.67;;;;;;;17.88;41.53;104198.81;5024343;28;20124;-41
2022/03/18 04:42:27;;;;;;;3.30;1.80;;;;;;;17.96;41.38;104199.34;5023030;28;20123;-41
2022/03/18 04:44:53;;;;;;;3.10;1.65;;;;;;;18.03;41.53;104199.94;5025215;28;20076;-40
2022/03/18 04:47:20;;;;;;;3.78;1.85;;;;;;;18.11;41.38;104205.81;5023581;28;20077;-41
2022/03/18 04:49:46;;;;;;;1.77;1.20;;;;;;;18.19;41.47;104198.28;5021051;28;20054;-41
2022/03/18 04:52:14;;;;;;;2.95;1.55;;;;;;;18.28;41.09;104190.72;5022692;28;20142;-40
2022/03/18 04:54:40;;;;;;;2.92;1.90;;;;;;;18.37;41.03;104192.94;5023854;28;20057;-40
2022/03/18 04:57:16;;;;;;;4.97;1.67;;;;;;;18.44;41.16;104187.22;5024836;28;20057;-40
2022/03/18 04:59:43;;;;;;;2.40;1.77;;;;;;;18.53;40.88;104191.25;5018406;28;20065;-40
2022/03/18 05:02:14;;;;;;;4.95;1.70;;;;;;;18.61;40.89;104194.44;5019592;28;20140;-40
2022/03/18 05:04:42;;;;;;;3.85;2.00;;;;;;;18.69;40.72;104199.44;5021830;28;20095;-40
2022/03/18 05:07:13;;;;;;;3.40;2.00;;;;;;;18.76;40.41;104195.53;5028149;28;20061;-40
2022/03/18 05:09:40;;;;;;;2.63;1.40;;;;;;;18.83;40.63;104196.13;5023877;28;20188;-40
2022/03/18 05:12:11;;;;;;;3.72;2.05;;;;;;;18.86;40.55;104207.59;5017369;28;20045;-40
2022/03/18 05:14:39;;;;;;;3.92;1.90;;;;;;;18.93;40.43;104211.69;5019879;28;20425;-41
2022/03/18 05:17:07;;;;;;;4.55;2.08;;;;;;;18.96;40.35;104214.22;5022315;28;20140;-41
2022/03/18 05:19:35;;;;;;;6.05;2.20;;;;;;;18.99;40.93;104213.19;5025749;28;20057;-41
2022/03/18 05:22:04;;;;;;;5.13;1.98;;;;;;;19.00;40.30;104212.25;5027610;28;20140;-41
2022/03/18 05:24:30;;;;;;;4.68;2.20;;;;;;;19.02;40.35;104220.25;5026476;28;20049;-41
2022/03/18 05:26:57;;;;;;;4.38;2.42;;;;;;;19.00;40.53;104223.00;5030274;28;20084;-42
2022/03/18 05:29:27;;;;;;;5.82;2.28;;;;;;;18.97;40.27;104233.91;5029387;28;20133;-41
2022/03/18 05:31:54;;;;;;;3.92;2.03;;;;;;;18.93;39.98;104229.63;5029152;28;20135;-41
2022/03/18 05:34:22;;;;;;;3.42;1.88;;;;;;;18.89;40.33;104234.28;5028193;28;20073;-41
2022/03/18 05:36:49;;;;;;;5.45;1.73;;;;;;;18.87;39.95;104227.25;5027734;28;20136;-41
2022/03/18 05:39:16;;;;;;;3.83;2.20;;;;;;;18.84;40.44;104238.16;5028313;28;20053;-41
2022/03/18 05:41:43;;;;;;;3.45;2.13;;;;;;;18.81;39.96;104249.06;5029249;28;20056;-41
2022/03/18 05:44:11;;;;;;;4.20;2.30;;;;;;;18.77;40.54;104250.16;5028835;28;20053;-41
2022/03/18 05:46:41;;;;;;;4.10;2.13;;;;;;;18.71;40.06;104262.94;5025261;28;20420;-41
2022/03/18 05:49:07;;;;;;;5.97;2.30;;;;;;;18.67;40.36;104258.63;5028783;28;20496;-41
2022/03/18 05:51:34;;;;;;;3.85;2.13;;;;;;;18.64;40.50;104266.84;5030653;28;20144;-41
2022/03/18 05:54:01;;;;;;;2.63;1.65;;;;;;;18.59;40.17;104270.69;5028707;28;20588;-41
2022/03/18 05:59:15;;;;;;;3.28;1.83;;;;;;;18.50;40.70;104270.19;5030804;28;20041;-41
2022/03/18 06:01:43;;;;;;;4.03;2.08;;;;;;;18.47;40.68;104277.53;5027956;28;20069;-42
2022/03/18 06:04:10;;;;;;;5.30;2.25;;;;;;;18.44;40.40;104277.66;5025614;28;20124;-41
2022/03/18 06:06:44;;;;;;;5.30;2.38;;;;;;;18.39;40.67;104287.75;5030331;28;20371;-41
2022/03/18 06:11:57;;;;;;;3.15;2.28;;;;;;;18.34;40.73;104290.66;5026829;28;20132;-41
2022/03/18 06:14:26;;;;;;;6.15;2.75;;;;;;;18.31;40.90;104279.19;5029362;28;20375;-42
2022/03/18 06:16:55;;;;;;;3.95;1.85;;;;;;;18.28;40.93;104280.19;5026027;28;20132;-41
2022/03/18 06:19:24;;;;;;;3.20;2.10;;;;;;;18.25;40.86;104283.91;5029483;28;20168;-41
2022/03/18 06:21:51;;;;;;;4.70;2.10;;;;;;;18.24;41.17;104287.53;5025905;28;20085;-42
2022/03/18 06:24:20;;;;;;;5.05;2.50;;;;;;;18.24;40.88;104292.03;5027284;28;20384;-41
2022/03/18 06:26:48;;;;;;;4.80;1.98;;;;;;;18.24;40.79;104289.34;5028145;28;20038;-41
2022/03/18 06:29:15;;;;;;;4.75;2.03;;;;;;;18.23;40.57;104288.47;5027361;28;20367;-40
2022/03/18 06:31:42;;;;;;;4.53;2.40;;;;;;;18.23;41.02;104292.97;5025581;28;20067;-40
2022/03/18 06:34:11;;;;;;;3.65;1.98;;;;;;;18.23;41.15;104299.22;5026956;28;20052;-41
2022/03/18 06:36:39;;;;;;;3.05;2.10;;;;;;;18.24;40.82;104303.63;5029883;28;20146;-41
2022/03/18 06:39:07;;;;;;;5.45;2.40;;;;;;;18.24;40.72;104302.75;5026573;28;20124;-40
2022/03/18 06:41:35;;;;;;;5.22;2.35;;;;;;;18.23;40.64;104311.78;5025069;28;20354;-41
2022/03/18 06:44:02;;;;;;;5.30;2.67;;;;;;;18.21;40.53;104298.44;5028154;28;20049;-42
2022/03/18 06:46:28;;;;;;;4.60;2.38;;;;;;;18.23;40.95;104309.09;5022213;28;20132;-41
2022/03/18 06:48:55;;;;;;;5.05;2.47;;;;;;;18.21;40.89;104327.97;5024962;28;20067;-41
2022/03/18 06:51:22;;;;;;;4.03;2.30;;;;;;;18.21;40.69;104327.97;5024481;28;20054;-41
2022/03/18 06:53:48;;;;;;;3.40;1.83;;;;;;;18.22;41.27;104332.38;5022777;28;20045;-41
2022/03/18 06:56:15;;;;;;;3.70;1.95;;;;;;;18.23;40.84;104344.88;5023638;28;20050;-40
2022/03/18 06:58:43;;;;;;;4.00;2.20;;;;;;;18.26;40.98;104343.88;5028275;28;20049;-40
2022/03/18 07:01:10;;;;;;;4.68;2.30;;;;;;;18.30;40.77;104339.22;5023723;28;20341;-41
2022/03/18 07:03:37;;;;;;;3.17;2.40;;;;;;;18.32;40.67;104331.97;5025438;28;20332;-40
2022/03/18 07:06:06;;;;;;;4.05;2.25;;;;;;;18.35;40.84;104339.88;5025135;28;20037;-41
2022/03/18 07:08:33;;;;;;;6.35;2.70;;;;;;;18.36;40.71;104339.81;5025760;28;20381;-40
2022/03/18 07:11:01;;;;;;;4.25;2.45;;;;;;;18.37;40.75;104341.56;5028690;28;20108;-41
2022/03/18 07:13:28;;;;;;;5.93;2.42;;;;;;;18.37;40.42;104346.94;5027027;28;20045;-40
2022/03/18 07:15:56;;;;;;;4.68;2.58;;;;;;;18.38;40.68;104350.50;5024826;28;20051;-40
2022/03/18 07:18:22;;;;;;;3.60;2.28;;;;;;;18.38;40.42;104346.00;5025012;28;20049;-40
2022/03/18 07:20:49;;;;;;;3.55;2.13;;;;;;;18.40;40.25;104349.47;5023289;28;20055;-41
2022/03/18 07:23:17;;;;;;;3.40;2.05;;;;;;;18.42;40.18;104354.78;5023522;28;20072;-41
2022/03/18 07:25:46;;;;;;;4.75;2.38;;;;;;;18.42;40.55;104357.47;5025974;28;20065;-41
2022/03/18 07:28:18;;;;;;;3.13;2.00;;;;;;;18.42;40.69;104355.66;5025468;28;20041;-40
2022/03/18 07:30:45;;;;;;;3.03;2.05;;;;;;;18.42;40.47;104352.97;5024119;28;20052;-41
2022/03/18 07:33:12;;;;;;;3.95;2.00;;;;;;;18.43;40.53;104356.50;5026852;28;20057;-41
2022/03/18 07:35:39;;;;;;;5.15;2.30;;;;;;;18.42;40.34;104362.84;5024200;28;20045;-41
2022/03/18 07:38:09;;;;;;;3.60;2.15;;;;;;;18.43;40.14;104364.56;5026599;28;20715;-41
2022/03/18 07:40:37;;;;;;;5.32;2.30;;;;;;;18.43;40.10;104368.13;5021506;28;20050;-41
2022/03/18 07:43:05;;;;;;;4.45;2.22;;;;;;;18.43;40.60;104369.94;5025627;28;20496;-41
2022/03/18 07:45:34;;;;;;;3.85;2.38;;;;;;;18.43;40.35;104375.31;5019537;28;20150;-41
2022/03/18 07:48:07;;;;;;;4.10;2.63;;;;;;;18.43;40.49;104373.50;5023931;28;20047;-40
2022/03/18 07:50:36;;;;;;;4.43;2.25;;;;;;;18.44;40.55;104379.75;5021437;28;20054;-41
2022/03/18 07:53:05;;;;;;;4.03;2.00;;;;;;;18.45;40.74;104386.84;5020720;28;20132;-41
2022/03/18 07:55:34;;;;;;;3.47;2.20;;;;;;;18.47;40.37;104387.66;5022269;28;20053;-41
2022/03/18 07:58:01;;;;;;;3.47;2.20;;;;;;;18.48;40.67;104392.09;5021221;28;20141;-41
2022/03/18 08:00:27;;;;;;;2.67;1.80;;;;;;;18.50;40.70;104398.28;5023460;28;20136;-40
2022/03/18 08:02:54;;;;;;;4.15;2.05;;;;;;;18.51;40.37;104405.38;5026491;28;20041;-41
2022/03/18 08:05:22;;;;;;;5.55;2.53;;;;;;;18.55;40.92;104407.00;5025761;28;20425;-40
2022/03/18 08:07:55;;;;;;;5.32;2.38;;;;;;;18.58;40.75;104414.06;5021494;28;20045;-39
2022/03/18 08:10:22;;;;;;;2.70;1.83;;;;;;;18.61;40.72;104412.06;5023129;28;20050;-39
2022/03/18 08:12:49;;;;;;;5.75;2.30;;;;;;;18.65;41.04;104421.75;5024285;28;20049;-39
2022/03/18 08:15:17;;;;;;;4.45;2.35;;;;;;;18.69;41.14;104422.47;5017737;28;20128;-40
2022/03/18 08:17:44;;;;;;;5.55;2.40;;;;;;;18.72;41.41;104423.22;5019339;28;20338;-40
2022/03/18 08:20:14;;;;;;;3.25;2.10;;;;;;;18.77;41.30;104427.53;5022197;28;20169;-40
2022/03/18 08:22:41;;;;;;;5.15;2.38;;;;;;;18.82;41.44;104430.91;5023011;28;20053;-40
2022/03/18 08:25:09;;;;;;;2.97;1.80;;;;;;;18.86;40.94;104440.56;5021208;28;20056;-40
2022/03/18 08:27:36;;;;;;;4.82;1.85;;;;;;;18.90;41.02;104439.47;5022560;28;20050;-40
2022/03/18 08:30:05;;;;;;;3.30;1.65;;;;;;;18.94;41.11;104443.75;5021861;28;20041;-40
2022/03/18 08:32:33;;;;;;;3.40;1.80;;;;;;;18.97;41.04;104448.97;5022096;28;20042;-40
2022/03/18 08:35:01;;;;;;;5.57;2.30;;;;;;;19.02;40.80;104457.72;5022277;28;20148;-40
2022/03/18 08:40:13;;;;;;;3.65;1.73;;;;;;;19.09;40.91;104451.06;5019025;28;20128;-40
2022/03/18 08:42:40;;;;;;;5.00;2.03;;;;;;;19.12;40.47;104459.00;5018471;28;20200;-40
2022/03/18 08:45:08;;;;;;;3.30;1.70;;;;;;;19.15;40.52;104458.88;5018031;28;20119;-40
2022/03/18 08:47:34;;;;;;;3.03;1.70;;;;;;;19.19;40.62;104468.53;5019120;28;20489;-40
2022/03/18 08:50:01;;;;;;;3.63;1.65;;;;;;;19.23;40.88;104463.88;5021967;28;20144;-40
2022/03/18 08:52:27;;;;;;;3.30;1.60;;;;;;;19.26;40.55;104461.06;5020853;28;20073;-41
2022/03/18 08:54:54;;;;;;;4.28;1.58;;;;;;;19.29;40.52;104465.41;5019694;28;20152;-40
2022/03/18 08:57:20;;;;;;;2.90;1.80;;;;;;;19.32;40.55;104466.13;5017942;28;20060;-41
2022/03/18 08:59:47;;;;;;;3.28;1.65;;;;;;;19.36;41.11;104474.91;5020272;28;20034;-40
2022/03/18 09:02:13;;;;;;;3.00;1.70;;;;;;;19.39;40.72;104466.72;5022626;28;20145;-41
2022/03/18 09:04:42;;;;;;;4.32;1.80;;;;;;;19.41;41.35;104471.03;5024577;28;20456;-40
2022/03/18 09:07:11;;;;;;;4.45;1.80;;;;;;;19.43;41.33;104469.16;5024025;28;20172;-41
2022/03/18 09:09:37;;;;;;;3.17;1.88;;;;;;;19.46;41.42;104474.41;5025747;28;20042;-41
2022/03/18 09:12:04;;;;;;;5.57;2.55;;;;;;;19.49;41.19;104478.75;5028137;28;20141;-40
2022/03/18 09:14:31;;;;;;;5.40;2.30;;;;;;;19.52;41.67;104485.81;5023519;28;20049;-40
2022/03/18 09:16:57;;;;;;;3.55;1.80;;;;;;;19.55;41.74;104485.66;5023946;28;20060;-40
2022/03/18 09:19:25;;;;;;;4.78;1.88;;;;;;;19.57;41.45;104481.06;5027041;28;20045;-40
2022/03/18 09:21:51;;;;;;;5.45;2.33;;;;;;;19.60;41.69;104489.88;5023093;28;20172;-40
2022/03/18 09:24:18;;;;;;;6.10;2.13;;;;;;;19.62;41.75;104493.41;5024068;28;20048;-40
2022/03/18 09:26:45;;;;;;;4.45;1.70;;;;;;;19.65;41.17;104495.91;5026411;28;20041;-40
2022/03/18 09:29:12;;;;;;;3.90;1.98;;;;;;;19.68;40.96;104495.78;5026584;28;20172;-40
2022/03/18 09:31:38;;;;;;;6.28;2.13;;;;;;;19.72;41.42;104505.44;5024723;28;20056;-41
2022/03/18 09:34:05;;;;;;;6.90;2.10;;;;;;;19.75;41.12;104512.50;5025911;28;20049;-40
2022/03/18 09:36:32;;;;;;;5.68;2.40;;;;;;;19.80;41.00;104520.34;5025074;28;20041;-41
2022/03/18 09:38:58;;;;;;;4.80;2.10;;;;;;;19.83;41.25;104521.06;5027075;28;20574;-41
2022/03/18 09:41:25;;;;;;;4.68;2.38;;;;;;;19.87;40.91;104528.06;5023711;28;20045;-41
2022/03/18 09:43:52;;;;;;;5.50;1.90;;;;;;;19.93;41.29;104529.56;5025281;28;20661;-40
2022/03/18 09:46:19;;;;;;;6.80;2.63;;;;;;;19.98;41.45;104530.22;5025912;28;20132;-41
2022/03/18 09:49:02;;;;;;;4.65;2.03;;;;;;;20.03;41.33;104522.78;5021480;28;20057;-42
2022/03/18 09:51:29;;;;;;;5.93;2.20;;;;;;;20.09;40.49;104533.22;5025099;28;20140;-42
2022/03/18 09:54:16;;;;;;;6.15;2.08;;;;;;;20.14;41.12;104536.59;5022625;28;20549;-42
2022/03/18 09:56:47;;;;;;;10.30;2.42;;;;;;;20.18;40.96;104532.78;5023787;28;20050;-42
2022/03/18 09:59:15;;;;;;;5.93;2.15;;;;;;;20.23;40.62;104537.06;5025521;28;20049;-41
2022/03/18 10:01:42;;;;;;;6.45;2.42;;;;;;;20.28;40.33;104537.69;5024163;28;20373;-42
2022/03/18 10:04:10;;;;;;;6.30;2.22;;;;;;;20.32;40.59;104537.44;5027002;28;20033;-42
2022/03/18 10:06:38;;;;;;;6.28;2.53;;;;;;;20.37;40.54;104548.84;5028525;28;20049;-41
2022/03/18 10:09:05;;;;;;;7.07;2.58;;;;;;;20.41;40.62;104544.19;5026075;28;20412;-42
2022/03/18 10:11:36;;;;;;;6.97;2.67;;;;;;;20.45;40.49;104546.63;5027811;28;20070;-43
2022/03/18 10:14:05;;;;;;;7.65;2.58;;;;;;;20.49;40.10;104547.38;5029276;28;20073;-40
2022/03/18 10:16:36;;;;;;;6.13;2.33;;;;;;;20.53;40.13;104540.88;5026014;28;20100;-41
2022/03/18 10:19:08;;;;;;;4.90;2.33;;;;;;;20.57;40.49;104545.16;5028728;28;20056;-40
2022/03/18 10:22:05;;;;;;;6.38;2.20;;;;;;;20.61;40.37;104541.34;5026169;28;20076;-40
2022/03/18 10:24:34;;;;;;;6.32;2.63;;;;;;;20.66;39.66;104541.09;5025440;28;20069;-40
2022/03/18 10:27:15;;;;;;;5.90;2.33;;;;;;;20.69;40.18;104539.13;5029161;28;20041;-41
2022/03/18 10:29:55;;;;;;;8.38;2.47;;;;;;;20.74;39.97;104538.88;5029154;28;20136;-42
2022/03/18 10:32:24;;;;;;;6.00;2.08;;;;;;;20.78;39.86;104537.75;5027889;28;20049;-40
2022/03/18 10:37:49;;;;;;;7.22;2.20;;;;;;;20.84;39.57;104528.47;5027468;28;20128;-41
2022/03/18 10:40:18;;;;;;;7.18;2.35;;;;;;;20.88;39.33;104530.94;5025964;28;20388;-40
2022/03/18 10:43:03;;;;;;;6.25;2.60;;;;;;;20.91;39.54;104538.00;5026063;28;20045;-41
2022/03/18 10:45:30;;;;;;;8.85;2.70;;;;;;;20.94;39.18;104536.00;5027967;28;20057;-41
2022/03/18 10:48:14;;;;;;;8.93;2.50;;;;;;;20.96;39.00;104530.50;5027924;28;20444;-41
2022/03/18 10:50:41;;;;;;;7.40;1.98;;;;;;;21.01;39.50;104538.34;5024122;28;20140;-40
2022/03/18 10:53:11;;;;;;;9.63;2.38;;;;;;;21.04;39.63;104538.19;5023985;28;20341;-41
2022/03/18 10:55:44;;;;;;;3.78;2.13;;;;;;;21.07;39.41;104543.44;5026989;28;20041;-40
2022/03/18 10:58:17;;;;;;;7.07;2.00;;;;;;;21.08;39.59;104540.63;5022004;28;20421;-41
2022/03/18 11:00:45;;;;;;;7.20;2.08;;;;;;;21.11;39.44;104531.50;5026485;28;20124;-41
2022/03/18 11:03:13;;;;;;;7.72;2.72;;;;;;;21.13;39.29;104543.06;5026953;28;20096;-42
2022/03/18 11:05:47;;;;;;;12.23;2.28;;;;;;;21.15;39.07;104543.88;5026711;28;20050;-40
2022/03/18 11:08:21;;;;;;;4.88;1.83;;;;;;;21.17;39.19;104540.13;5025648;28;20045;-41
2022/03/18 11:11:07;;;;;;;5.55;1.80;;;;;;;21.19;39.21;104545.44;5029414;28;20456;-41
2022/03/18 11:13:41;;;;;;;11.02;2.78;;;;;;;21.21;40.01;104540.81;5027275;28;20044;-42
2022/03/18 11:16:11;;;;;;;13.65;2.85;;;;;;;21.24;39.96;104537.97;5026570;28;20149;-42
2022/03/18 11:18:40;;;;;;;10.35;2.25;;;;;;;21.27;40.50;104547.72;5021811;28;20045;-41
2022/03/18 11:21:07;;;;;;;9.48;2.33;;;;;;;21.29;40.58;104541.28;5024152;28;20559;-41
2022/03/18 11:23:37;;;;;;;17.05;3.58;;;;;;;21.29;40.67;104532.31;5022055;28;20041;-41
2022/03/18 11:26:04;;;;;;;30.48;6.18;;;;;;;21.31;40.91;104536.69;5022829;28;20038;-42
2022/03/18 11:28:31;;;;;;;28.67;6.43;;;;;;;21.33;41.28;104536.63;5021762;28;20046;-42
2022/03/18 11:31:05;;;;;;;35.08;8.25;;;;;;;21.33;41.36;104544.72;5020968;28;20140;-40
2022/03/18 11:33:34;;;;;;;35.17;8.45;;;;;;;21.34;41.39;104541.03;5020968;28;20049;-41
2022/03/18 11:36:00;;;;;;;36.58;8.02;;;;;;;21.34;41.34;104543.75;5023956;28;20050;-41
2022/03/18 11:38:47;;;;;;;40.08;8.93;;;;;;;21.36;41.36;104552.63;5022710;28;20056;-41
2022/03/18 11:41:15;;;;;;;28.58;7.57;;;;;;;21.36;41.72;104558.91;5026565;28;20045;-43
2022/03/18 11:43:42;;;;;;;28.00;8.40;;;;;;;21.37;41.71;104557.06;5024964;28;20128;-42
2022/03/18 11:46:17;;;;;;;25.77;8.07;;;;;;;21.37;41.33;104536.34;5030674;28;20045;-43
2022/03/18 11:48:47;;;;;;;25.13;6.55;;;;;;;21.37;41.46;104546.28;5025592;28;20091;-42